createdAt,value
2018-07-21T00:01:22.427Z,56.00
2018-07-21T00:06:19.948Z,56.05
2018-07-21T00:11:25.631Z,56.86
2018-07-21T00:16:23.352Z,58.87
2018-07-21T00:21:20.935Z,60.46
2018-07-21T00:26:18.439Z,59.40
2018-07-21T00:31:15.976Z,56.28
2018-07-21T00:36:13.485Z,54.35
2018-07-21T00:41:25.309Z,54.86
2018-07-21T00:46:22.962Z,54.43
2018-07-21T00:51:20.552Z,52.83
2018-07-21T00:56:18.064Z,52.81
2018-07-21T01:01:15.611Z,55.95
2018-07-21T01:06:13.144Z,53.10
2018-07-21T01:11:24.271Z,53.52
2018-07-21T01:16:22.320Z,50.60
2018-07-21T01:21:19.852Z,50.90
2018-07-21T01:26:17.447Z,53.67
2018-07-21T01:31:14.975Z,54.94
2018-07-21T01:36:12.495Z,59.20
2018-07-21T01:41:10.006Z,59.46
2018-07-21T01:46:07.543Z,59.75
2018-07-21T01:51:05.059Z,58.07
2018-07-21T01:56:02.604Z,56.86
2018-07-21T02:01:00.284Z,57.09
2018-07-21T02:05:57.806Z,55.83
2018-07-21T02:10:58.028Z,57.51
2018-07-21T02:15:55.667Z,56.28
2018-07-21T02:20:53.167Z,55.40
2018-07-21T02:25:50.680Z,54.61
2018-07-21T02:30:48.209Z,54.27
2018-07-21T02:35:45.725Z,54.29
2018-07-21T02:40:43.224Z,53.64
2018-07-21T02:45:40.771Z,53.03
2018-07-21T02:50:38.259Z,52.11
2018-07-21T02:55:35.788Z,53.40
2018-07-21T03:00:33.349Z,51.19
2018-07-21T03:05:30.916Z,52.28
2018-07-21T03:10:28.408Z,52.70
2018-07-21T03:15:26.163Z,54.02
2018-07-21T03:20:23.697Z,53.62
2018-07-21T03:25:21.219Z,53.94
2018-07-21T03:30:19.155Z,53.60
2018-07-21T03:35:16.663Z,53.00
2018-07-21T03:40:14.187Z,54.16
2018-07-21T03:45:11.735Z,55.09
2018-07-21T03:50:09.230Z,54.76
2018-07-21T03:55:06.820Z,53.24
2018-07-21T04:00:04.862Z,53.68
2018-07-21T04:05:02.377Z,54.16
2018-07-21T04:09:59.899Z,53.82
2018-07-21T04:14:57.476Z,53.24
2018-07-21T04:19:55.863Z,54.41
2018-07-21T04:24:53.648Z,53.61
2018-07-21T04:29:51.740Z,53.99
2018-07-21T04:34:49.250Z,54.31
2018-07-21T04:39:46.817Z,55.37
2018-07-21T04:44:44.360Z,53.75
2018-07-21T04:49:41.883Z,53.32
2018-07-21T04:54:39.413Z,54.70
2018-07-21T04:59:36.999Z,54.42
2018-07-21T05:04:36.480Z,53.38
2018-07-21T05:09:34.189Z,54.59
2018-07-21T05:14:31.794Z,54.10
2018-07-21T05:19:29.343Z,55.03
2018-07-21T05:24:27.065Z,55.04
2018-07-21T05:29:24.707Z,56.65
2018-07-21T05:34:22.215Z,55.16
2018-07-21T05:39:19.768Z,55.62
2018-07-21T05:44:17.317Z,56.32
2018-07-21T05:49:14.848Z,55.56
2018-07-21T05:54:12.373Z,54.65
2018-07-21T05:59:09.932Z,54.78
2018-07-21T06:04:07.429Z,52.84
2018-07-21T06:09:06.971Z,53.05
2018-07-21T06:14:04.522Z,50.90
2018-07-21T06:19:02.043Z,52.59
2018-07-21T06:23:59.549Z,52.71
2018-07-21T06:28:57.056Z,53.98
2018-07-21T06:33:54.575Z,51.86
2018-07-21T06:38:52.167Z,53.67
2018-07-21T06:43:49.720Z,53.78
2018-07-21T06:48:47.224Z,55.44
2018-07-21T06:53:44.782Z,58.16
2018-07-21T06:58:42.350Z,57.41
2018-07-21T07:03:39.901Z,59.55
2018-07-21T07:08:37.418Z,59.55
2018-07-21T07:13:34.951Z,65.62
2018-07-21T07:18:32.498Z,66.95
2018-07-21T07:23:30.032Z,67.06
2018-07-21T07:28:33.071Z,67.48
2018-07-21T07:33:36.937Z,71.05
2018-07-21T07:38:39.194Z,71.60
2018-07-21T07:43:45.752Z,71.62
2018-07-21T07:48:49.805Z,73.30
2018-07-21T07:53:50.160Z,74.46
2018-07-21T07:58:47.826Z,74.92
2018-07-21T08:03:45.380Z,74.95
2018-07-21T08:08:42.916Z,75.46
2018-07-21T08:13:40.478Z,76.09
2018-07-21T08:18:38.069Z,77.37
2018-07-21T08:23:35.624Z,77.75
2018-07-21T08:28:33.190Z,74.71
2018-07-21T08:33:30.811Z,73.92
2018-07-21T08:38:28.720Z,77.48
2018-07-21T08:43:26.312Z,75.20
2018-07-21T08:48:23.880Z,76.47
2018-07-21T08:53:22.996Z,73.16
2018-07-21T08:58:21.162Z,70.07
2018-07-21T09:03:18.695Z,64.75
2018-07-21T09:08:16.240Z,64.32
2018-07-21T09:13:13.901Z,61.57
2018-07-21T09:18:11.389Z,58.17
2018-07-21T09:23:08.944Z,60.16
2018-07-21T09:28:06.549Z,57.79
2018-07-21T09:33:04.727Z,57.28
2018-07-21T09:38:02.283Z,57.00
2018-07-21T09:42:59.837Z,61.14
2018-07-21T09:47:57.380Z,59.53
2018-07-21T09:52:55.000Z,56.21
2018-07-21T09:57:52.582Z,53.61
2018-07-21T10:02:50.100Z,52.26
2018-07-21T10:07:47.643Z,54.88
2018-07-21T10:12:45.182Z,54.37
2018-07-21T10:17:42.726Z,52.64
2018-07-21T10:22:40.238Z,54.09
2018-07-21T10:27:43.296Z,52.90
2018-07-21T10:32:40.870Z,52.36
2018-07-21T10:37:38.389Z,55.48
2018-07-21T10:42:35.928Z,55.05
2018-07-21T10:47:33.398Z,54.59
2018-07-21T10:52:30.934Z,54.66
2018-07-21T10:57:28.506Z,54.68
2018-07-21T11:02:26.009Z,52.44
2018-07-21T11:07:23.538Z,49.74
2018-07-21T11:12:21.077Z,48.84
2018-07-21T11:17:18.595Z,48.91
2018-07-21T11:22:16.111Z,48.81
2018-07-21T11:27:13.931Z,49.24
2018-07-21T11:32:11.479Z,46.79
2018-07-21T11:37:08.992Z,47.84
2018-07-21T11:42:07.924Z,53.62
2018-07-21T11:47:05.449Z,52.04
2018-07-21T11:52:03.033Z,52.51
2018-07-21T11:57:01.898Z,54.75
2018-07-21T12:01:59.449Z,54.15
2018-07-21T12:06:57.024Z,50.88
2018-07-21T12:11:56.127Z,47.57
2018-07-21T12:16:53.660Z,47.80
2018-07-21T12:21:57.933Z,46.64
2018-07-21T12:26:56.001Z,42.56
2018-07-21T12:31:53.519Z,43.57
2018-07-21T12:36:51.022Z,41.83
2018-07-21T12:41:49.947Z,46.12
2018-07-21T12:46:47.510Z,45.33
2018-07-21T12:51:45.029Z,42.73
2018-07-21T12:56:42.564Z,43.55
2018-07-21T13:01:40.215Z,44.73
2018-07-21T13:06:37.763Z,47.53
2018-07-21T13:11:39.773Z,45.52
2018-07-21T13:16:37.427Z,44.49
2018-07-21T13:21:35.058Z,44.47
2018-07-21T13:26:33.067Z,45.61
2018-07-21T13:31:30.598Z,45.27
2018-07-21T13:36:28.978Z,42.34
2018-07-21T13:41:33.553Z,41.08
2018-07-21T13:46:31.123Z,41.12
2018-07-21T13:51:29.713Z,38.11
2018-07-21T13:56:28.096Z,39.72
2018-07-21T14:01:25.674Z,39.39
2018-07-21T14:06:23.213Z,43.71
2018-07-21T14:11:33.341Z,44.12
2018-07-21T14:16:31.073Z,46.30
2018-07-21T14:21:28.676Z,44.75
2018-07-21T14:26:26.238Z,44.45
2018-07-21T14:31:23.796Z,46.76
2018-07-21T14:36:21.523Z,45.73
2018-07-21T14:41:27.024Z,46.50
2018-07-21T14:46:24.699Z,47.13
2018-07-21T14:51:22.212Z,46.98
2018-07-21T14:56:19.753Z,49.68
2018-07-21T15:01:17.372Z,49.38
2018-07-21T15:06:14.999Z,51.71
2018-07-21T15:11:21.887Z,51.59
2018-07-21T15:16:19.781Z,52.66
2018-07-21T15:21:17.328Z,51.54
2018-07-21T15:26:14.860Z,52.54
2018-07-21T15:31:12.542Z,53.12
2018-07-21T15:36:10.059Z,53.25
2018-07-21T15:41:07.574Z,53.71
2018-07-21T15:46:05.538Z,52.31
2018-07-21T15:51:03.101Z,52.76
2018-07-21T15:56:00.648Z,52.96
2018-07-21T16:00:58.224Z,53.55
2018-07-21T16:05:55.765Z,52.69
2018-07-21T16:10:53.338Z,54.45
2018-07-21T16:15:50.889Z,52.33
2018-07-21T16:20:48.443Z,51.78
2018-07-21T16:25:45.983Z,47.70
2018-07-21T16:30:43.512Z,47.70
2018-07-21T16:35:41.042Z,48.63
2018-07-21T16:40:38.623Z,51.24
2018-07-21T16:45:36.196Z,53.00
2018-07-21T16:50:33.724Z,52.88
2018-07-21T16:55:31.236Z,50.87
2018-07-21T17:00:28.843Z,51.56
2018-07-21T17:05:26.332Z,53.01
2018-07-21T17:10:23.833Z,53.37
2018-07-21T17:15:21.346Z,55.66
2018-07-21T17:20:18.848Z,57.55
2018-07-21T17:25:16.345Z,55.80
2018-07-21T17:30:18.434Z,55.74
2018-07-21T17:35:16.727Z,56.62
2018-07-21T17:40:14.977Z,55.25
2018-07-21T17:45:13.366Z,54.77
2018-07-21T17:50:11.870Z,54.28
2018-07-21T17:55:10.067Z,53.58
2018-07-21T18:00:08.417Z,55.35
2018-07-21T18:05:06.687Z,55.56
2018-07-21T18:10:05.344Z,54.83
2018-07-21T18:15:04.448Z,54.14
2018-07-21T18:20:04.814Z,57.47
2018-07-21T18:25:06.779Z,57.83
2018-07-21T18:30:07.016Z,57.58
2018-07-21T18:35:08.761Z,58.97
2018-07-21T18:40:11.561Z,55.13
2018-07-21T18:45:12.973Z,56.13
2018-07-21T18:50:12.372Z,61.15
2018-07-21T18:55:13.880Z,61.57
2018-07-21T19:00:16.042Z,61.99
2018-07-21T19:05:17.523Z,61.50
2018-07-21T19:10:19.217Z,62.27
2018-07-21T19:15:24.995Z,61.73
2018-07-21T19:20:31.045Z,63.54
2018-07-21T19:25:37.385Z,64.70
2018-07-21T19:30:35.828Z,64.45
2018-07-21T19:35:34.722Z,66.87
2018-07-21T19:40:33.374Z,66.60
2018-07-21T19:45:31.638Z,66.71
2018-07-21T19:50:30.310Z,67.35
2018-07-21T19:55:28.564Z,67.72
2018-07-21T20:00:27.070Z,63.81
2018-07-21T20:05:25.314Z,64.44
2018-07-21T20:10:23.400Z,67.17
2018-07-21T20:15:21.422Z,67.71
2018-07-21T20:20:19.496Z,65.92
2018-07-21T20:25:17.258Z,63.09
2018-07-21T20:30:15.865Z,62.03
2018-07-21T20:35:13.861Z,65.60
2018-07-21T20:40:11.996Z,68.41
2018-07-21T20:45:09.975Z,69.14
2018-07-21T20:50:08.092Z,69.31
2018-07-21T20:55:05.995Z,70.41
2018-07-21T21:00:04.590Z,70.19
2018-07-21T21:05:02.975Z,71.49
2018-07-21T21:10:01.030Z,73.56
2018-07-21T21:14:59.160Z,73.04
2018-07-21T21:19:57.405Z,72.62
2018-07-21T21:24:55.360Z,71.36
2018-07-21T21:29:53.445Z,73.56
2018-07-21T21:34:51.561Z,73.23
2018-07-21T21:39:49.859Z,74.81
2018-07-21T21:44:48.248Z,74.31
2018-07-21T21:49:46.409Z,75.17
2018-07-21T21:54:44.688Z,74.23
2018-07-21T21:59:43.021Z,74.13
2018-07-21T22:05:44.120Z,73.50
2018-07-21T22:10:42.253Z,75.87
2018-07-21T22:15:40.501Z,76.59
2018-07-21T22:20:38.619Z,76.56
2018-07-21T22:25:37.200Z,75.58
2018-07-21T22:30:35.686Z,76.99
2018-07-21T22:35:33.211Z,78.20
2018-07-21T22:40:30.728Z,79.10
2018-07-21T22:45:28.762Z,79.83
2018-07-21T22:50:26.288Z,79.17
2018-07-21T22:55:23.754Z,80.05
2018-07-21T23:00:21.284Z,79.27
2018-07-21T23:05:18.770Z,79.65
2018-07-21T23:10:16.276Z,79.07
2018-07-21T23:15:13.791Z,80.29
2018-07-21T23:20:11.291Z,79.73
2018-07-21T23:25:08.829Z,79.49
2018-07-21T23:30:06.333Z,80.16
2018-07-21T23:35:03.981Z,80.05
2018-07-21T23:40:01.475Z,77.05
2018-07-21T23:44:58.945Z,79.85
2018-07-21T23:49:56.432Z,78.53
2018-07-21T23:54:53.953Z,79.17
2018-07-21T23:59:51.470Z,80.02
